createdAt,value
2023-01-26T00:01:19.235Z,97626.97
2023-01-26T00:03:46.979Z,97626.66
2023-01-26T00:06:16.188Z,97633.16
2023-01-26T00:08:45.120Z,97627.50
2023-01-26T00:11:14.656Z,97623.72
2023-01-26T00:13:41.926Z,97611.66
2023-01-26T00:16:11.318Z,97623.09
2023-01-26T00:18:39.847Z,97629.06
2023-01-26T00:21:08.696Z,97623.72
2023-01-26T00:23:36.001Z,97621.09
2023-01-26T00:26:05.863Z,97623.97
2023-01-26T00:28:33.007Z,97620.41
2023-01-26T00:31:08.862Z,97620.28
2023-01-26T00:33:36.594Z,97619.97
2023-01-26T00:36:03.535Z,97633.59
2023-01-26T00:38:31.697Z,97620.84
2023-01-26T00:40:58.548Z,97621.63
2023-01-26T00:43:25.330Z,97625.28
2023-01-26T00:45:52.217Z,97622.75
2023-01-26T00:48:21.136Z,97619.75
2023-01-26T00:50:51.139Z,97618.28
2023-01-26T00:53:17.932Z,97619.50
2023-01-26T00:55:45.755Z,97617.72
2023-01-26T00:58:12.457Z,97612.06
2023-01-26T01:00:39.223Z,97616.84
2023-01-26T01:03:07.099Z,97615.38
2023-01-26T01:05:34.413Z,97612.63
2023-01-26T01:08:02.126Z,97619.19
2023-01-26T01:10:29.040Z,97626.72
2023-01-26T01:12:56.754Z,97628.50
2023-01-26T01:15:24.953Z,97634.84
2023-01-26T01:17:52.786Z,97625.00
2023-01-26T01:20:19.760Z,97621.69
2023-01-26T01:22:46.861Z,97629.34
2023-01-26T01:25:13.884Z,97634.81
2023-01-26T01:27:40.868Z,97631.50
2023-01-26T01:30:08.797Z,97628.53
2023-01-26T01:32:36.634Z,97625.25
2023-01-26T01:35:03.985Z,97629.53
2023-01-26T01:37:30.871Z,97621.88
2023-01-26T01:39:57.640Z,97620.59
2023-01-26T01:42:25.265Z,97628.66
2023-01-26T01:45:26.202Z,97626.91
2023-01-26T01:47:57.635Z,97624.78
2023-01-26T01:50:25.884Z,97615.56
2023-01-26T01:52:55.132Z,97617.59
2023-01-26T01:55:23.239Z,97622.31
2023-01-26T01:57:55.232Z,97619.88
2023-01-26T02:00:23.868Z,97614.88
2023-01-26T02:03:14.133Z,97625.63
2023-01-26T02:05:56.180Z,97612.56
2023-01-26T02:08:30.803Z,97614.56
2023-01-26T02:11:00.823Z,97608.56
2023-01-26T02:13:28.379Z,97601.97
2023-01-26T02:15:56.017Z,97597.47
2023-01-26T02:18:22.802Z,97596.13
2023-01-26T02:20:53.403Z,97589.53
2023-01-26T02:23:29.736Z,97586.91
2023-01-26T02:25:57.518Z,97581.63
2023-01-26T02:28:28.018Z,97575.19
2023-01-26T02:30:56.428Z,97586.97
2023-01-26T02:33:29.089Z,97580.53
2023-01-26T02:36:00.546Z,97573.66
2023-01-26T02:38:39.226Z,97583.16
2023-01-26T02:41:35.093Z,97572.75
2023-01-26T02:44:04.760Z,97565.31
2023-01-26T02:46:31.810Z,97565.56
2023-01-26T02:49:17.378Z,97558.78
2023-01-26T02:51:44.117Z,97558.91
2023-01-26T02:54:31.045Z,97563.44
2023-01-26T02:56:59.116Z,97554.16
2023-01-26T02:59:25.930Z,97556.13
2023-01-26T03:01:53.368Z,97565.97
2023-01-26T03:04:20.067Z,97565.31
2023-01-26T03:06:47.152Z,97554.66
2023-01-26T03:09:13.932Z,97551.91
2023-01-26T03:11:44.100Z,97542.91
2023-01-26T03:14:13.046Z,97549.03
2023-01-26T03:16:40.888Z,97553.22
2023-01-26T03:19:31.003Z,97551.00
2023-01-26T03:22:16.884Z,97545.78
2023-01-26T03:25:02.521Z,97544.00
2023-01-26T03:27:32.115Z,97543.00
2023-01-26T03:30:02.683Z,97540.94
2023-01-26T03:32:30.909Z,97535.38
2023-01-26T03:34:58.962Z,97533.16
2023-01-26T03:37:25.782Z,97535.38
2023-01-26T03:40:18.671Z,97536.72
2023-01-26T03:43:04.091Z,97530.59
2023-01-26T03:45:49.578Z,97525.84
2023-01-26T03:48:35.162Z,97529.06
2023-01-26T03:51:23.265Z,97521.63
2023-01-26T03:54:08.757Z,97517.88
2023-01-26T03:56:35.751Z,97522.09
2023-01-26T03:59:11.082Z,97513.66
2023-01-26T04:01:42.833Z,97517.53
2023-01-26T04:04:29.926Z,97519.63
2023-01-26T04:07:15.347Z,97508.56
2023-01-26T04:09:47.536Z,97508.00
2023-01-26T04:12:14.338Z,97503.22
2023-01-26T04:15:20.888Z,97507.66
2023-01-26T04:18:06.245Z,97499.69
2023-01-26T04:20:51.494Z,97502.56
2023-01-26T04:23:21.392Z,97508.88
2023-01-26T04:25:50.273Z,97502.13
2023-01-26T04:28:17.406Z,97496.81
2023-01-26T04:30:44.531Z,97501.34
2023-01-26T04:33:11.565Z,97502.38
2023-01-26T04:35:39.219Z,97501.47
2023-01-26T04:38:06.814Z,97497.59
2023-01-26T04:40:33.460Z,97505.56
2023-01-26T04:43:00.545Z,97494.16
2023-01-26T04:45:27.979Z,97500.25
2023-01-26T04:47:54.759Z,97506.34
2023-01-26T04:50:21.533Z,97506.34
2023-01-26T04:52:48.640Z,97513.97
2023-01-26T04:55:16.249Z,97510.22
2023-01-26T04:57:43.672Z,97505.31
2023-01-26T05:00:12.524Z,97499.25
2023-01-26T05:02:40.691Z,97503.78
2023-01-26T05:05:09.062Z,97500.25
2023-01-26T05:07:36.201Z,97506.34
2023-01-26T05:10:04.138Z,97498.03
2023-01-26T05:12:42.893Z,97506.78
2023-01-26T05:15:29.807Z,97503.22
2023-01-26T05:18:04.829Z,97488.59
2023-01-26T05:20:50.140Z,97497.69
2023-01-26T05:23:19.595Z,97496.81
2023-01-26T05:26:09.042Z,97497.78
2023-01-26T05:29:08.130Z,97494.34
2023-01-26T05:31:35.022Z,97491.72
2023-01-26T05:34:01.707Z,97489.03
2023-01-26T05:36:32.554Z,97496.13
2023-01-26T05:38:59.815Z,97499.13
2023-01-26T05:41:27.471Z,97506.00
2023-01-26T05:44:12.727Z,97501.69
2023-01-26T05:46:52.343Z,97500.47
2023-01-26T05:49:19.151Z,97491.47
2023-01-26T05:51:45.996Z,97494.72
2023-01-26T05:54:13.806Z,97499.47
2023-01-26T05:56:40.674Z,97508.69
2023-01-26T05:59:08.439Z,97515.09
2023-01-26T06:01:35.261Z,97500.13
2023-01-26T06:04:05.654Z,97492.03
2023-01-26T06:06:38.065Z,97496.00
2023-01-26T06:09:27.397Z,97497.47
2023-01-26T06:12:18.407Z,97502.34
2023-01-26T06:15:12.801Z,97506.31
2023-01-26T06:17:43.967Z,97506.78
2023-01-26T06:20:15.002Z,97506.44
2023-01-26T06:22:47.345Z,97511.31
2023-01-26T06:25:15.432Z,97519.06
2023-01-26T06:27:42.674Z,97515.97
2023-01-26T06:30:36.016Z,97523.63
2023-01-26T06:33:07.150Z,97523.16
2023-01-26T06:35:37.308Z,97532.91
2023-01-26T06:38:08.669Z,97530.69
2023-01-26T06:40:35.378Z,97535.88
2023-01-26T06:43:02.115Z,97532.03
2023-01-26T06:45:28.913Z,97529.59
2023-01-26T06:47:55.662Z,97528.50
2023-01-26T06:50:27.441Z,97531.38
2023-01-26T06:53:00.260Z,97542.25
2023-01-26T06:55:56.452Z,97543.00
2023-01-26T06:58:47.546Z,97536.91
2023-01-26T07:01:35.637Z,97539.25
2023-01-26T07:04:02.716Z,97548.19
2023-01-26T07:06:29.383Z,97542.66
2023-01-26T07:08:56.025Z,97543.22
2023-01-26T07:11:22.864Z,97549.97
2023-01-26T07:13:49.948Z,97539.47
2023-01-26T07:16:17.682Z,97538.00
2023-01-26T07:18:44.697Z,97555.28
2023-01-26T07:21:14.225Z,97557.28
2023-01-26T07:23:41.324Z,97562.94
2023-01-26T07:26:08.464Z,97576.28
2023-01-26T07:28:35.580Z,97572.59
2023-01-26T07:31:03.973Z,97579.00
2023-01-26T07:33:32.305Z,97587.56
2023-01-26T07:35:59.985Z,97589.53
2023-01-26T07:38:29.069Z,97587.78
2023-01-26T07:40:57.069Z,97598.19
2023-01-26T07:43:24.189Z,97602.19
2023-01-26T07:45:54.731Z,97607.81
2023-01-26T07:48:23.990Z,97610.28
2023-01-26T07:50:51.771Z,97615.09
2023-01-26T07:53:19.555Z,97620.41
2023-01-26T07:55:47.666Z,97621.81
2023-01-26T07:58:14.478Z,97634.50
2023-01-26T08:00:41.595Z,97639.25
2023-01-26T08:03:08.800Z,97639.94
2023-01-26T08:05:37.112Z,97647.66
2023-01-26T08:08:04.147Z,97661.59
2023-01-26T08:10:31.957Z,97676.34
2023-01-26T08:13:02.060Z,97676.50
2023-01-26T08:15:33.901Z,97686.91
2023-01-26T08:18:03.785Z,97693.97
2023-01-26T08:20:31.222Z,97697.38
2023-01-26T08:23:00.264Z,97688.47
2023-01-26T08:25:27.149Z,97701.91
2023-01-26T08:27:55.106Z,97697.00
2023-01-26T08:30:21.955Z,97711.06
2023-01-26T08:32:49.616Z,97704.59
2023-01-26T08:35:16.884Z,97709.28
2023-01-26T08:37:43.931Z,97714.72
2023-01-26T08:40:11.546Z,97717.63
2023-01-26T08:42:38.371Z,97719.06
2023-01-26T08:45:05.323Z,97729.94
2023-01-26T08:47:32.232Z,97722.50
2023-01-26T08:49:58.966Z,97721.06
2023-01-26T08:52:25.646Z,97726.00
2023-01-26T08:54:52.716Z,97720.91
2023-01-26T08:57:19.501Z,97731.25
2023-01-26T08:59:46.244Z,97726.00
2023-01-26T09:02:12.955Z,97722.72
2023-01-26T09:04:40.188Z,97728.72
2023-01-26T09:07:07.036Z,97718.78
2023-01-26T09:09:33.888Z,97716.19
2023-01-26T09:12:00.552Z,97727.66
2023-01-26T09:14:28.783Z,97725.28
2023-01-26T09:16:55.541Z,97738.25
2023-01-26T09:19:22.376Z,97744.13
2023-01-26T09:21:53.919Z,97752.69
2023-01-26T09:24:22.159Z,97781.72
2023-01-26T09:26:48.924Z,97778.47
2023-01-26T09:29:16.388Z,97778.06
2023-01-26T09:31:43.154Z,97783.44
2023-01-26T09:34:09.872Z,97791.16
2023-01-26T09:36:36.551Z,97794.47
2023-01-26T09:39:03.490Z,97803.16
2023-01-26T09:42:06.975Z,97808.25
2023-01-26T09:44:48.545Z,97805.16
2023-01-26T09:47:27.243Z,97816.88
2023-01-26T09:50:04.130Z,97805.88
2023-01-26T09:52:55.814Z,97779.94
2023-01-26T09:55:24.961Z,97792.41
2023-01-26T09:58:05.140Z,97787.69
2023-01-26T10:00:43.620Z,97762.09
2023-01-26T10:03:32.312Z,97762.13
2023-01-26T10:06:05.288Z,97764.56
2023-01-26T10:08:50.774Z,97754.66
2023-01-26T10:11:27.397Z,97742.72
2023-01-26T10:14:00.223Z,97736.38
2023-01-26T10:16:27.361Z,97718.13
2023-01-26T10:18:59.680Z,97714.47
2023-01-26T10:21:32.588Z,97722.03
2023-01-26T10:24:01.575Z,97724.03
2023-01-26T10:26:31.656Z,97726.81
2023-01-26T10:28:59.083Z,97723.13
2023-01-26T10:31:29.132Z,97725.22
2023-01-26T10:33:59.825Z,97716.84
2023-01-26T10:36:31.145Z,97708.34
2023-01-26T10:39:06.280Z,97701.38
2023-01-26T10:41:34.029Z,97697.44
2023-01-26T10:44:09.999Z,97702.06
2023-01-26T10:46:39.666Z,97700.16
2023-01-26T10:49:09.451Z,97694.91
2023-01-26T10:51:38.040Z,97679.50
2023-01-26T10:54:24.781Z,97669.81
2023-01-26T10:57:10.609Z,97670.91
2023-01-26T11:00:08.441Z,97664.91
2023-01-26T11:02:36.583Z,97661.19
2023-01-26T11:05:09.179Z,97659.22
2023-01-26T11:07:41.605Z,97641.97
2023-01-26T11:10:18.968Z,97629.66
2023-01-26T11:12:46.051Z,97625.50
2023-01-26T11:15:25.372Z,97617.63
2023-01-26T11:18:00.916Z,97601.28
2023-01-26T11:20:56.955Z,97601.53
2023-01-26T11:23:36.416Z,97603.84
2023-01-26T11:26:18.441Z,97596.06
2023-01-26T11:28:59.455Z,97606.94
2023-01-26T11:31:52.625Z,97597.00
2023-01-26T11:34:34.579Z,97604.63
2023-01-26T11:37:24.272Z,97575.63
2023-01-26T11:40:16.058Z,97566.81
2023-01-26T11:43:08.579Z,97558.06
2023-01-26T11:45:55.136Z,97562.50
2023-01-26T11:48:50.306Z,97562.06
2023-01-26T11:51:40.981Z,97553.06
2023-01-26T11:54:27.477Z,97550.50
2023-01-26T11:57:13.944Z,97539.09
2023-01-26T11:59:48.666Z,97537.50
2023-01-26T12:02:27.944Z,97541.50
2023-01-26T12:04:57.184Z,97541.28
2023-01-26T12:07:51.515Z,97540.63
2023-01-26T12:10:41.546Z,97534.94
2023-01-26T12:13:33.802Z,97535.59
2023-01-26T12:16:08.965Z,97529.38
2023-01-26T12:18:53.007Z,97527.06
2023-01-26T12:21:23.033Z,97519.13
2023-01-26T12:24:05.659Z,97516.34
2023-01-26T12:26:37.068Z,97510.56
2023-01-26T12:29:18.824Z,97513.56
2023-01-26T12:32:16.274Z,97506.75
2023-01-26T12:34:43.198Z,97497.94
2023-01-26T12:37:49.564Z,97486.94
2023-01-26T12:40:29.974Z,97488.00
2023-01-26T12:43:05.681Z,97487.47
2023-01-26T12:45:38.157Z,97480.13
2023-01-26T12:48:16.096Z,97476.94
2023-01-26T12:50:49.361Z,97482.72
2023-01-26T12:53:30.292Z,97486.72
2023-01-26T12:56:10.424Z,97466.81
2023-01-26T12:58:46.331Z,97473.34
2023-01-26T13:01:18.399Z,97474.97
2023-01-26T13:03:53.331Z,97469.28
2023-01-26T13:06:26.127Z,97474.19
2023-01-26T13:09:19.500Z,97464.81
2023-01-26T13:11:52.611Z,97462.19
2023-01-26T13:14:30.737Z,97477.44
2023-01-26T13:17:19.086Z,97478.06
2023-01-26T13:19:45.819Z,97470.31
2023-01-26T13:22:18.281Z,97469.06
2023-01-26T13:24:57.359Z,97462.56
2023-01-26T13:27:39.314Z,97467.00
2023-01-26T13:30:24.912Z,97466.03
2023-01-26T13:33:23.977Z,97466.25
2023-01-26T13:35:53.743Z,97459.16
2023-01-26T13:38:29.387Z,97459.31
2023-01-26T13:40:56.240Z,97467.75
2023-01-26T13:43:32.812Z,97466.34
2023-01-26T13:46:18.101Z,97455.66
2023-01-26T13:48:56.264Z,97455.13
2023-01-26T13:51:28.275Z,97456.38
2023-01-26T13:54:00.099Z,97459.97
2023-01-26T13:56:39.163Z,97452.16
2023-01-26T13:59:19.498Z,97457.22
2023-01-26T14:01:51.909Z,97444.44
2023-01-26T14:04:21.401Z,97461.78
2023-01-26T14:07:16.658Z,97462.44
2023-01-26T14:09:47.660Z,97464.78
2023-01-26T14:12:27.648Z,97447.19
2023-01-26T14:14:57.579Z,97454.25
2023-01-26T14:17:29.248Z,97440.78
2023-01-26T14:19:56.988Z,97454.25
2023-01-26T14:22:24.394Z,97454.72
2023-01-26T14:24:53.188Z,97452.09
2023-01-26T14:27:30.407Z,97451.47
2023-01-26T14:29:58.245Z,97444.63
2023-01-26T14:32:29.410Z,97441.38
2023-01-26T14:34:59.427Z,97441.22
2023-01-26T14:37:27.395Z,97440.31
2023-01-26T14:40:20.667Z,97445.66
2023-01-26T14:42:50.204Z,97453.03
2023-01-26T14:45:17.676Z,97455.34
2023-01-26T14:47:45.530Z,97449.16
2023-01-26T14:50:18.307Z,97444.34
2023-01-26T14:52:46.101Z,97446.22
2023-01-26T14:55:31.986Z,97444.91
2023-01-26T14:58:01.045Z,97441.88
2023-01-26T15:00:31.484Z,97441.88
2023-01-26T15:03:01.446Z,97445.28
2023-01-26T15:05:37.045Z,97445.88
2023-01-26T15:08:24.846Z,97443.31
2023-01-26T15:11:21.013Z,97438.75
2023-01-26T15:13:52.504Z,97445.88
2023-01-26T15:16:23.031Z,97447.75
2023-01-26T15:19:00.099Z,97435.59
2023-01-26T15:21:39.748Z,97439.78
2023-01-26T15:24:13.391Z,97441.22
2023-01-26T15:26:40.327Z,97438.47
2023-01-26T15:29:25.845Z,97440.25
2023-01-26T15:31:55.154Z,97446.59
2023-01-26T15:34:40.583Z,97442.25
2023-01-26T15:37:26.261Z,97446.13
2023-01-26T15:39:53.183Z,97445.88
2023-01-26T15:42:36.434Z,97450.13
2023-01-26T15:45:03.785Z,97436.38
2023-01-26T15:47:30.389Z,97441.53
2023-01-26T15:49:57.316Z,97437.34
2023-01-26T15:52:30.248Z,97440.94
2023-01-26T15:54:57.144Z,97436.88
2023-01-26T15:57:23.796Z,97428.00
2023-01-26T15:59:50.475Z,97429.47
2023-01-26T16:02:19.791Z,97427.69
2023-01-26T16:04:46.972Z,97423.34
2023-01-26T16:07:16.319Z,97423.13
2023-01-26T16:09:43.369Z,97427.53
2023-01-26T16:12:30.434Z,97420.41
2023-01-26T16:14:57.812Z,97419.56
2023-01-26T16:17:25.520Z,97415.75
2023-01-26T16:19:52.269Z,97414.75
2023-01-26T16:22:19.062Z,97415.09
2023-01-26T16:24:46.778Z,97415.31
2023-01-26T16:27:13.444Z,97420.56
2023-01-26T16:29:40.155Z,97419.56
2023-01-26T16:32:28.087Z,97427.06
2023-01-26T16:34:54.925Z,97421.47
2023-01-26T16:37:21.523Z,97419.63
2023-01-26T16:39:48.228Z,97423.44
2023-01-26T16:42:19.444Z,97427.78
2023-01-26T16:44:46.400Z,97424.44
2023-01-26T16:47:12.971Z,97425.78
2023-01-26T16:49:39.767Z,97419.63
2023-01-26T16:52:08.550Z,97417.31
2023-01-26T16:54:35.267Z,97417.56
2023-01-26T16:57:02.049Z,97417.84
2023-01-26T16:59:28.794Z,97412.06
2023-01-26T17:01:55.601Z,97413.28
2023-01-26T17:04:24.155Z,97421.66
2023-01-26T17:06:50.946Z,97422.19
2023-01-26T17:09:17.590Z,97425.44
2023-01-26T17:11:44.330Z,97428.53
2023-01-26T17:14:12.273Z,97430.09
2023-01-26T17:16:39.660Z,97427.00
2023-01-26T17:19:08.980Z,97425.53
2023-01-26T17:21:36.546Z,97422.75
2023-01-26T17:24:03.721Z,97423.81
2023-01-26T17:26:30.568Z,97420.25
2023-01-26T17:28:57.261Z,97411.59
2023-01-26T17:31:24.981Z,97412.28
2023-01-26T17:33:51.879Z,97413.91
2023-01-26T17:36:19.727Z,97422.03
2023-01-26T17:38:48.177Z,97415.59
2023-01-26T17:41:15.608Z,97420.97
2023-01-26T17:43:42.264Z,97418.41
2023-01-26T17:46:12.836Z,97428.63
2023-01-26T17:48:40.533Z,97422.75
2023-01-26T17:51:09.056Z,97413.59
2023-01-26T17:53:40.500Z,97420.88
2023-01-26T17:56:12.010Z,97410.09
2023-01-26T17:58:39.193Z,97415.75
2023-01-26T18:01:07.884Z,97408.31
2023-01-26T18:03:34.834Z,97410.66
2023-01-26T18:06:01.750Z,97414.75
2023-01-26T18:08:28.428Z,97414.22
2023-01-26T18:11:00.087Z,97415.75
2023-01-26T18:13:28.011Z,97407.88
2023-01-26T18:15:55.331Z,97416.84
2023-01-26T18:18:26.862Z,97400.97
2023-01-26T18:20:54.011Z,97404.31
2023-01-26T18:23:22.733Z,97404.59
2023-01-26T18:25:49.871Z,97413.50
2023-01-26T18:28:16.838Z,97405.72
2023-01-26T18:30:43.617Z,97399.97
2023-01-26T18:33:10.485Z,97400.25
2023-01-26T18:35:37.398Z,97396.38
2023-01-26T18:38:04.902Z,97400.25
2023-01-26T18:40:32.050Z,97403.59
2023-01-26T18:42:58.895Z,97405.38
2023-01-26T18:45:25.706Z,97408.50
2023-01-26T18:47:52.501Z,97406.47
2023-01-26T18:50:19.842Z,97401.13
2023-01-26T18:52:46.629Z,97407.25
2023-01-26T18:55:13.985Z,97400.34
2023-01-26T18:57:40.919Z,97400.13
2023-01-26T19:00:09.229Z,97392.50
2023-01-26T19:02:39.726Z,97392.50
2023-01-26T19:05:07.932Z,97390.28
2023-01-26T19:07:35.198Z,97390.50
2023-01-26T19:10:02.245Z,97385.38
2023-01-26T19:12:28.954Z,97393.59
2023-01-26T19:14:55.677Z,97393.34
2023-01-26T19:17:22.307Z,97389.03
2023-01-26T19:19:49.285Z,97394.69
2023-01-26T19:22:16.217Z,97387.31
2023-01-26T19:24:43.155Z,97390.13
2023-01-26T19:27:10.641Z,97385.53
2023-01-26T19:29:37.392Z,97383.00
2023-01-26T19:32:04.278Z,97385.28
2023-01-26T19:34:32.245Z,97383.22
2023-01-26T19:36:59.171Z,97385.78
2023-01-26T19:39:25.982Z,97371.75
2023-01-26T19:41:52.739Z,97386.63
2023-01-26T19:44:19.657Z,97391.50
2023-01-26T19:46:54.998Z,97394.06
2023-01-26T19:49:21.811Z,97389.72
2023-01-26T19:51:49.120Z,97381.03
2023-01-26T19:54:15.945Z,97388.69
2023-01-26T19:56:42.886Z,97379.00
2023-01-26T19:59:11.850Z,97387.69
2023-01-26T20:01:38.860Z,97376.94
2023-01-26T20:04:09.513Z,97373.13
2023-01-26T20:06:37.553Z,97375.91
2023-01-26T20:09:06.038Z,97375.13
2023-01-26T20:11:34.028Z,97368.25
2023-01-26T20:14:06.104Z,97373.13
2023-01-26T20:16:34.335Z,97365.47
2023-01-26T20:19:02.034Z,97361.13
2023-01-26T20:21:30.203Z,97359.88
2023-01-26T20:23:57.312Z,97363.75
2023-01-26T20:26:26.108Z,97358.38
2023-01-26T20:28:57.591Z,97360.94
2023-01-26T20:31:26.010Z,97356.84
2023-01-26T20:33:53.876Z,97355.06
2023-01-26T20:36:23.751Z,97360.72
2023-01-26T20:38:50.606Z,97350.47
2023-01-26T20:41:21.781Z,97351.22
2023-01-26T20:43:59.100Z,97344.09
2023-01-26T20:46:40.000Z,97349.97
2023-01-26T20:49:08.916Z,97349.97
2023-01-26T20:51:36.365Z,97340.03
2023-01-26T20:54:08.860Z,97343.84
2023-01-26T20:56:35.809Z,97334.63
2023-01-26T20:59:03.123Z,97336.63
2023-01-26T21:01:30.405Z,97332.59
2023-01-26T21:03:57.247Z,97326.22
2023-01-26T21:06:24.803Z,97327.31
2023-01-26T21:08:54.208Z,97325.53
2023-01-26T21:11:22.696Z,97327.31
2023-01-26T21:13:49.540Z,97316.31
2023-01-26T21:16:17.189Z,97320.94
2023-01-26T21:18:45.466Z,97308.94
2023-01-26T21:21:14.677Z,97309.44
2023-01-26T21:23:41.537Z,97306.88
2023-01-26T21:26:11.683Z,97304.88
2023-01-26T21:28:38.693Z,97301.31
2023-01-26T21:31:08.791Z,97298.50
2023-01-26T21:33:41.065Z,97301.84
2023-01-26T21:36:11.562Z,97295.72
2023-01-26T21:38:42.171Z,97297.25
2023-01-26T21:41:35.814Z,97295.47
2023-01-26T21:44:06.145Z,97284.19
2023-01-26T21:46:33.748Z,97292.69
2023-01-26T21:49:00.545Z,97281.66
2023-01-26T21:51:46.799Z,97276.53
2023-01-26T21:54:13.755Z,97275.28
2023-01-26T21:56:40.380Z,97278.63
2023-01-26T21:59:10.268Z,97269.16
2023-01-26T22:01:43.357Z,97269.94
2023-01-26T22:04:13.011Z,97264.81
2023-01-26T22:06:39.808Z,97263.03
2023-01-26T22:09:10.457Z,97254.59
2023-01-26T22:11:37.389Z,97255.13
2023-01-26T22:14:04.187Z,97253.31
2023-01-26T22:16:30.960Z,97257.41
2023-01-26T22:18:57.924Z,97275.34
2023-01-26T22:21:25.027Z,97251.28
2023-01-26T22:23:53.250Z,97256.16
2023-01-26T22:26:22.115Z,97250.28
2023-01-26T22:28:57.187Z,97251.81
2023-01-26T22:31:28.779Z,97250.03
2023-01-26T22:33:57.411Z,97248.78
2023-01-26T22:36:24.934Z,97253.13
2023-01-26T22:38:52.640Z,97246.97
2023-01-26T22:41:21.976Z,97240.09
2023-01-26T22:43:50.180Z,97246.00
2023-01-26T22:46:18.618Z,97246.97
2023-01-26T22:48:46.084Z,97248.28
2023-01-26T22:51:20.956Z,97249.06
2023-01-26T22:53:49.791Z,97245.50
2023-01-26T22:56:17.472Z,97243.72
2023-01-26T22:58:57.100Z,97248.59
2023-01-26T23:01:26.381Z,97246.81
2023-01-26T23:03:55.064Z,97245.03
2023-01-26T23:06:22.446Z,97242.47
2023-01-26T23:08:49.601Z,97238.88
2023-01-26T23:11:22.025Z,97241.44
2023-01-26T23:13:50.729Z,97242.75
2023-01-26T23:16:18.032Z,97240.44
2023-01-26T23:18:45.188Z,97240.94
2023-01-26T23:21:12.921Z,97229.94
2023-01-26T23:23:40.432Z,97253.50
2023-01-26T23:26:08.721Z,97254.28
2023-01-26T23:28:39.485Z,97241.47
2023-01-26T23:31:06.592Z,97241.47
2023-01-26T23:33:35.161Z,97247.16
2023-01-26T23:36:03.098Z,97227.66
2023-01-26T23:38:30.634Z,97232.78
2023-01-26T23:40:57.730Z,97226.66
2023-01-26T23:43:24.692Z,97221.28
2023-01-26T23:45:51.957Z,97227.97
2023-01-26T23:48:20.135Z,97218.50
2023-01-26T23:50:47.347Z,97213.59
2023-01-26T23:53:15.098Z,97215.94
2023-01-26T23:55:43.590Z,97225.16
2023-01-26T23:58:11.405Z,97231.03
